Time;durP1;ratioP1;P1;durP2;ratioP2;P2;SDS_P1;SDS_P2;PMS_P1;PMS_P2;Temp;Humidity;BMP_temperature;BMP_pressure;BME280_temperature;BME280_humidity;BME280_pressure;Samples;Min_cycle;Max_cycle;Signal;HPM_P1;HPM_P2
2022/10/21 00:00:55;;;;;;;4.47;2.00;;;19.40;99.90;;;;;;5051446;28;20216;-32
2022/10/21 00:03:24;;;;;;;5.63;2.10;;;19.40;99.90;;;;;;5051165;28;20235;-32
2022/10/21 00:05:52;;;;;;;5.63;2.00;;;19.40;99.90;;;;;;5051297;28;20196;-32
2022/10/21 00:08:20;;;;;;;4.50;1.80;;;19.30;99.90;;;;;;5049674;28;20218;-32
2022/10/21 00:10:57;;;;;;;6.57;1.83;;;19.30;99.90;;;;;;5051165;28;20192;-32
2022/10/21 00:13:26;;;;;;;3.07;2.10;;;19.30;99.90;;;;;;5051312;28;20217;-32
2022/10/21 00:16:06;;;;;;;4.03;2.10;;;19.20;99.90;;;;;;5051206;28;20242;-31
2022/10/21 00:18:38;;;;;;;6.03;1.83;;;19.20;99.90;;;;;;5051129;28;20240;-32
2022/10/21 00:21:08;;;;;;;2.27;1.53;;;19.20;99.90;;;;;;5049549;28;20299;-33
2022/10/21 00:23:35;;;;;;;3.83;1.90;;;19.20;99.90;;;;;;5051260;28;20684;-32
2022/10/21 00:26:05;;;;;;;3.78;1.58;;;19.20;99.90;;;;;;5050942;28;20586;-32
2022/10/21 00:28:33;;;;;;;6.35;1.80;;;19.10;99.90;;;;;;5051031;28;20185;-32
2022/10/21 00:31:02;;;;;;;2.17;1.60;;;19.10;99.90;;;;;;5051088;28;20204;-31
2022/10/21 00:33:32;;;;;;;2.40;1.30;;;19.10;99.90;;;;;;5050709;28;20301;-31
2022/10/21 00:36:04;;;;;;;3.10;1.70;;;19.00;99.90;;;;;;5050989;28;20572;-32
2022/10/21 00:38:33;;;;;;;3.10;1.70;;;19.00;99.90;;;;;;5065890;28;20216;-32
2022/10/21 00:41:03;;;;;;;3.17;1.70;;;19.00;99.90;;;;;;5050769;28;20204;-31
2022/10/21 00:43:30;;;;;;;3.65;1.50;;;18.90;99.90;;;;;;5050963;28;20196;-31
2022/10/21 00:46:06;;;;;;;3.97;1.58;;;18.90;99.90;;;;;;5050468;28;20342;-31
2022/10/21 00:48:34;;;;;;;3.28;1.60;;;18.90;99.90;;;;;;5065563;28;20211;-32
2022/10/21 00:51:09;;;;;;;5.30;1.35;;;18.90;99.90;;;;;;5050853;28;20227;-32
2022/10/21 00:53:41;;;;;;;3.70;1.38;;;18.90;99.90;;;;;;5050586;28;20538;-33
2022/10/21 00:56:15;;;;;;;3.87;1.80;;;18.80;99.90;;;;;;5050605;28;20283;-32
2022/10/21 00:58:45;;;;;;;7.82;1.95;;;18.80;99.90;;;;;;5063885;28;20281;-32
2022/10/21 01:01:15;;;;;;;2.55;1.45;;;18.80;99.90;;;;;;5048647;28;20212;-32
2022/10/21 01:03:48;;;;;;;3.55;1.58;;;18.80;99.90;;;;;;5049122;28;20590;-32
2022/10/21 01:06:19;;;;;;;3.83;1.70;;;18.80;99.90;;;;;;5049940;28;20671;-31
2022/10/21 01:08:51;;;;;;;4.23;1.73;;;18.70;99.90;;;;;;5050093;28;20211;-31
2022/10/21 01:11:21;;;;;;;3.13;1.60;;;18.70;99.90;;;;;;5049625;28;20234;-32
2022/10/21 01:14:36;;;;;;;4.13;1.70;;;18.70;99.90;;;;;;5049672;28;20203;-32
2022/10/21 01:17:09;;;;;;;3.42;2.03;;;18.70;99.90;;;;;;5049639;28;20644;-32
2022/10/21 01:20:08;;;;;;;3.78;1.52;;;18.60;99.90;;;;;;5049605;28;20200;-32
2022/10/21 01:22:38;;;;;;;6.57;1.67;;;18.60;99.90;;;;;;5049697;28;20204;-32
2022/10/21 01:25:11;;;;;;;2.80;1.47;;;18.50;99.90;;;;;;5049402;28;20208;-32
2022/10/21 01:27:58;;;;;;;6.37;2.13;;;18.50;99.90;;;;;;5049721;28;20212;-32
2022/10/21 01:30:43;;;;;;;2.30;1.60;;;18.50;99.90;;;;;;5049838;28;20215;-32
2022/10/21 01:33:44;;;;;;;4.10;1.73;;;18.40;99.90;;;;;;5049406;28;20195;-33
2022/10/21 01:36:35;;;;;;;2.67;1.40;;;18.40;99.90;;;;;;5049679;28;20602;-32
2022/10/21 01:39:47;;;;;;;3.37;1.43;;;18.40;99.90;;;;;;5049750;28;20311;-32
2022/10/21 01:42:50;;;;;;;2.80;1.52;;;18.30;99.90;;;;;;5049561;28;20207;-32
2022/10/21 01:45:44;;;;;;;4.70;2.20;;;18.30;99.90;;;;;;5049622;28;20228;-32
2022/10/21 01:48:17;;;;;;;2.72;1.50;;;18.30;99.90;;;;;;5049531;28;20605;-32
2022/10/21 01:50:52;;;;;;;2.03;1.30;;;18.20;99.90;;;;;;5047923;28;20292;-32
2022/10/21 01:53:23;;;;;;;4.18;1.92;;;18.20;99.90;;;;;;5049501;28;20744;-32
2022/10/21 01:55:51;;;;;;;3.05;1.65;;;18.20;99.90;;;;;;5049293;28;20199;-32
2022/10/21 01:58:22;;;;;;;2.50;1.50;;;18.20;99.90;;;;;;5049234;28;20216;-32
2022/10/21 02:00:52;;;;;;;3.20;1.63;;;18.20;99.90;;;;;;5049366;28;20212;-32
2022/10/21 02:03:28;;;;;;;5.93;1.53;;;18.10;99.90;;;;;;5049295;28;20193;-32
2022/10/21 02:05:55;;;;;;;2.33;1.50;;;18.10;99.90;;;;;;5048146;28;20234;-32
2022/10/21 02:08:23;;;;;;;4.80;1.43;;;18.10;99.90;;;;;;5049215;28;20192;-32
2022/10/21 02:10:55;;;;;;;3.47;1.80;;;18.00;99.90;;;;;;5049095;28;20291;-32
2022/10/21 02:13:26;;;;;;;5.73;1.40;;;18.00;99.90;;;;;;5049383;28;20567;-32
2022/10/21 02:15:58;;;;;;;3.27;1.73;;;18.00;99.90;;;;;;5049067;28;20196;-32
2022/10/21 02:18:28;;;;;;;4.73;1.70;;;18.00;99.90;;;;;;5048889;28;20322;-33
2022/10/21 02:21:00;;;;;;;3.40;1.47;;;18.00;99.90;;;;;;5048896;28;20630;-32
2022/10/21 02:23:40;;;;;;;4.17;1.53;;;17.90;99.90;;;;;;5048905;28;20192;-32
2022/10/21 02:26:07;;;;;;;3.10;1.47;;;17.90;99.90;;;;;;5048648;28;20188;-32
2022/10/21 02:28:35;;;;;;;2.10;1.55;;;17.90;99.90;;;;;;5048708;28;20251;-32
2022/10/21 02:31:20;;;;;;;2.87;1.50;;;17.90;99.90;;;;;;5048712;28;20201;-32
2022/10/21 02:34:05;;;;;;;2.43;1.50;;;17.80;99.90;;;;;;5048478;28;20204;-32
2022/10/21 02:36:57;;;;;;;4.20;1.40;;;17.80;99.90;;;;;;5048512;28;20310;-32
2022/10/21 02:39:55;;;;;;;3.77;1.40;;;17.80;99.90;;;;;;5048749;28;20228;-32
2022/10/21 02:42:25;;;;;;;4.00;1.30;;;17.80;99.90;;;;;;5048203;28;20208;-31
2022/10/21 02:44:53;;;;;;;3.37;1.57;;;17.70;99.90;;;;;;5048502;28;20304;-32
2022/10/21 02:47:24;;;;;;;3.47;1.20;;;17.70;99.90;;;;;;5048434;28;20204;-31
2022/10/21 02:49:52;;;;;;;3.27;1.33;;;17.70;99.90;;;;;;5063722;28;20206;-31
2022/10/21 02:52:21;;;;;;;2.17;1.00;;;17.70;99.90;;;;;;5046847;28;20245;-32
2022/10/21 02:54:48;;;;;;;2.77;1.30;;;17.60;99.90;;;;;;5047079;28;20207;-32
2022/10/21 02:57:15;;;;;;;2.93;1.57;;;17.60;99.90;;;;;;5048270;28;20266;-32
2022/10/21 02:59:43;;;;;;;2.53;1.40;;;17.60;99.90;;;;;;5048300;28;20645;-32
2022/10/21 03:02:10;;;;;;;2.53;1.30;;;17.60;99.90;;;;;;5048553;28;20281;-32
2022/10/21 03:04:37;;;;;;;2.47;1.30;;;17.50;99.90;;;;;;5048282;28;20204;-32
2022/10/21 03:07:05;;;;;;;3.87;1.50;;;17.50;99.90;;;;;;5048480;28;20199;-32
2022/10/21 03:09:32;;;;;;;6.00;1.23;;;17.50;99.90;;;;;;5048504;28;20200;-32
2022/10/21 03:11:59;;;;;;;4.63;1.47;;;17.50;99.90;;;;;;5048072;28;20733;-32
2022/10/21 03:14:26;;;;;;;3.00;1.40;;;17.50;99.90;;;;;;5048029;28;20644;-32
2022/10/21 03:16:53;;;;;;;1.43;1.20;;;17.40;99.90;;;;;;5047997;28;20214;-32
2022/10/21 03:19:21;;;;;;;2.63;1.20;;;17.40;99.90;;;;;;5048164;28;20240;-32
2022/10/21 03:21:48;;;;;;;2.90;1.27;;;17.40;99.90;;;;;;5048165;28;20212;-32
2022/10/21 03:24:15;;;;;;;2.73;1.33;;;17.40;99.90;;;;;;5048370;28;20287;-32
2022/10/21 03:26:55;;;;;;;3.10;1.37;;;17.30;99.90;;;;;;5049578;28;20187;-32
2022/10/21 03:29:22;;;;;;;6.00;1.30;;;17.30;99.90;;;;;;5051943;28;20311;-32
2022/10/21 03:31:49;;;;;;;2.80;1.37;;;17.30;99.90;;;;;;5052079;28;20200;-32
2022/10/21 03:34:16;;;;;;;2.23;1.50;;;17.20;99.90;;;;;;5052202;28;20243;-31
2022/10/21 03:36:44;;;;;;;1.90;1.20;;;17.20;99.90;;;;;;5051872;28;20295;-31
2022/10/21 03:39:11;;;;;;;3.43;1.30;;;17.20;99.90;;;;;;5051855;28;20652;-32
2022/10/21 03:41:39;;;;;;;1.90;1.50;;;17.20;99.90;;;;;;5052311;28;20291;-32
2022/10/21 03:44:06;;;;;;;2.97;1.80;;;17.10;99.90;;;;;;5050899;28;20233;-31
2022/10/21 03:46:33;;;;;;;4.63;1.63;;;17.10;99.90;;;;;;5052210;28;20204;-32
2022/10/21 03:49:00;;;;;;;5.60;1.80;;;17.10;99.90;;;;;;5051710;28;20334;-31
2022/10/21 03:51:31;;;;;;;2.77;1.37;;;17.10;99.90;;;;;;5050482;28;20204;-31
2022/10/21 03:53:58;;;;;;;7.77;2.17;;;17.00;99.90;;;;;;5051793;28;20224;-32
2022/10/21 03:56:28;;;;;;;4.13;1.63;;;17.00;99.90;;;;;;5051608;28;20196;-32
2022/10/21 03:58:55;;;;;;;4.47;1.77;;;17.00;99.90;;;;;;5051832;28;20307;-31
2022/10/21 04:01:25;;;;;;;2.83;1.97;;;17.00;99.90;;;;;;5050007;28;20211;-31
2022/10/21 04:03:53;;;;;;;3.13;1.70;;;17.00;99.90;;;;;;5051745;28;20200;-31
2022/10/21 04:06:22;;;;;;;3.87;1.63;;;17.00;99.90;;;;;;5051774;28;20196;-31
2022/10/21 04:08:49;;;;;;;3.80;1.57;;;17.00;99.90;;;;;;5049904;28;20196;-32
2022/10/21 04:11:16;;;;;;;3.43;1.30;;;16.90;99.90;;;;;;5051317;28;20239;-33
2022/10/21 04:13:44;;;;;;;2.60;1.60;;;16.90;99.90;;;;;;5050912;28;20208;-32
2022/10/21 04:16:18;;;;;;;3.73;1.50;;;16.90;99.90;;;;;;5051173;28;20733;-31
2022/10/21 04:18:48;;;;;;;4.53;1.70;;;16.90;99.90;;;;;;5050537;28;20266;-32
2022/10/21 04:21:17;;;;;;;3.77;1.47;;;16.80;99.90;;;;;;5050741;28;20204;-31
2022/10/21 04:23:44;;;;;;;3.37;1.80;;;16.80;99.90;;;;;;5050915;28;20196;-32
2022/10/21 04:26:12;;;;;;;5.00;1.60;;;16.80;99.90;;;;;;5051049;28;20595;-32
2022/10/21 04:28:41;;;;;;;4.10;1.57;;;16.80;99.90;;;;;;5050911;28;20779;-31
2022/10/21 04:31:09;;;;;;;4.40;1.50;;;16.80;99.90;;;;;;5050930;28;20193;-32
2022/10/21 04:33:36;;;;;;;3.27;1.60;;;16.80;99.90;;;;;;5050772;28;20616;-31
2022/10/21 04:36:03;;;;;;;3.93;1.50;;;16.80;99.90;;;;;;5051102;28;20216;-32
2022/10/21 04:38:33;;;;;;;3.43;1.60;;;16.80;99.90;;;;;;5050368;28;20204;-31
2022/10/21 04:41:02;;;;;;;2.67;1.60;;;16.80;99.90;;;;;;5050959;28;20239;-32
2022/10/21 04:43:29;;;;;;;3.97;1.63;;;16.80;99.90;;;;;;5050358;28;20655;-31
2022/10/21 04:45:59;;;;;;;6.33;1.70;;;16.80;99.90;;;;;;5050447;28;20258;-32
2022/10/21 04:48:26;;;;;;;7.23;1.90;;;16.80;99.90;;;;;;5050384;28;20204;-32
2022/10/21 04:50:55;;;;;;;5.03;1.90;;;16.80;99.90;;;;;;5050365;28;20218;-31
2022/10/21 04:53:22;;;;;;;2.80;1.40;;;16.70;99.90;;;;;;5048864;28;20244;-32
2022/10/21 04:55:51;;;;;;;3.53;1.90;;;16.70;99.90;;;;;;5050398;28;20180;-32
2022/10/21 04:58:20;;;;;;;3.85;1.90;;;16.70;99.90;;;;;;5050291;28;20201;-32
2022/10/21 05:00:51;;;;;;;3.20;1.60;;;16.80;99.90;;;;;;5050305;28;20192;-32
2022/10/21 05:03:24;;;;;;;2.00;1.57;;;16.80;99.90;;;;;;5050202;28;20585;-32
2022/10/21 05:05:51;;;;;;;4.30;1.80;;;16.80;99.90;;;;;;5049945;28;20291;-32
2022/10/21 05:08:21;;;;;;;3.43;1.60;;;16.80;99.90;;;;;;5048564;28;20283;-31
2022/10/21 05:10:51;;;;;;;3.10;1.43;;;16.80;99.90;;;;;;5050158;28;20561;-32
2022/10/21 05:13:20;;;;;;;3.13;1.60;;;16.80;99.90;;;;;;5050494;28;20612;-32
2022/10/21 05:15:47;;;;;;;4.67;1.50;;;16.80;99.90;;;;;;5049796;28;20288;-31
2022/10/21 05:18:14;;;;;;;3.80;1.40;;;16.80;99.90;;;;;;5050099;28;20240;-32
2022/10/21 05:20:42;;;;;;;4.10;1.93;;;16.90;99.90;;;;;;5049722;28;20230;-32
2022/10/21 05:23:09;;;;;;;3.93;1.50;;;16.90;99.90;;;;;;5049957;28;20196;-33
2022/10/21 05:25:36;;;;;;;6.60;2.87;;;16.90;99.90;;;;;;5049618;28;20203;-31
2022/10/21 05:28:03;;;;;;;4.33;1.67;;;16.90;99.90;;;;;;5049655;28;20311;-31
2022/10/21 05:30:33;;;;;;;2.50;1.50;;;16.90;99.90;;;;;;5049539;28;20748;-32
2022/10/21 05:33:00;;;;;;;6.70;1.97;;;17.00;99.90;;;;;;5049569;28;20223;-32
2022/10/21 05:35:27;;;;;;;4.57;2.10;;;17.00;99.90;;;;;;5048252;28;20208;-32
2022/10/21 05:37:55;;;;;;;7.33;2.80;;;17.00;99.90;;;;;;5049258;28;20208;-32
2022/10/21 05:40:24;;;;;;;12.63;3.17;;;17.00;99.90;;;;;;5049307;28;20223;-32
2022/10/21 05:42:51;;;;;;;7.17;2.67;;;17.00;99.90;;;;;;5049400;28;20204;-32
2022/10/21 05:45:21;;;;;;;7.83;2.90;;;17.00;99.90;;;;;;5049349;28;20193;-33
2022/10/21 05:47:48;;;;;;;7.93;2.40;;;17.00;99.90;;;;;;5049129;28;20706;-32
2022/10/21 05:50:16;;;;;;;4.90;2.10;;;17.10;99.90;;;;;;5049132;28;20662;-32
2022/10/21 05:52:43;;;;;;;5.83;2.33;;;17.10;99.90;;;;;;5049171;28;20204;-32
2022/10/21 05:55:10;;;;;;;5.27;1.87;;;17.10;99.90;;;;;;5064510;28;20212;-32
2022/10/21 05:57:38;;;;;;;4.23;2.00;;;17.10;99.90;;;;;;5049334;28;20277;-32
2022/10/21 06:00:06;;;;;;;6.33;2.00;;;17.10;99.90;;;;;;5047627;28;20490;-32
2022/10/21 06:02:33;;;;;;;8.90;2.10;;;17.10;99.90;;;;;;5048803;28;20295;-32
2022/10/21 06:05:01;;;;;;;4.53;2.00;;;17.20;99.90;;;;;;5049045;28;20214;-32
2022/10/21 06:07:28;;;;;;;4.87;2.70;;;17.20;99.90;;;;;;5049015;28;20196;-32
2022/10/21 06:10:00;;;;;;;3.47;2.17;;;17.20;99.90;;;;;;5047615;28;20196;-32
2022/10/21 06:12:32;;;;;;;5.63;2.10;;;17.20;99.90;;;;;;5048692;28;20615;-32
2022/10/21 06:14:59;;;;;;;3.90;2.00;;;17.20;99.90;;;;;;5048772;28;20722;-32
2022/10/21 06:17:26;;;;;;;4.93;2.07;;;17.20;99.90;;;;;;5047232;28;20208;-32
2022/10/21 06:19:54;;;;;;;6.87;2.53;;;17.30;99.90;;;;;;5048439;28;20738;-32
2022/10/21 06:22:21;;;;;;;3.57;2.37;;;17.30;99.90;;;;;;5048901;28;20231;-32
2022/10/21 06:24:49;;;;;;;5.17;2.10;;;17.30;99.90;;;;;;5048420;28;20216;-32
2022/10/21 06:27:19;;;;;;;4.37;2.20;;;17.30;99.90;;;;;;5048570;28;20196;-33
2022/10/21 06:29:46;;;;;;;7.13;2.30;;;17.30;99.90;;;;;;5048370;28;20954;-32
2022/10/21 06:32:13;;;;;;;4.37;1.97;;;17.30;99.90;;;;;;5048979;28;20223;-32
2022/10/21 06:34:40;;;;;;;5.40;2.40;;;17.40;99.90;;;;;;5063465;28;20204;-32
2022/10/21 06:37:07;;;;;;;5.03;2.10;;;17.40;99.90;;;;;;5048142;28;20207;-32
2022/10/21 06:39:35;;;;;;;5.63;2.50;;;17.40;99.90;;;;;;5048027;28;20728;-32
2022/10/21 06:42:02;;;;;;;6.63;2.57;;;17.40;99.90;;;;;;5048084;28;20214;-32
2022/10/21 06:44:29;;;;;;;3.77;2.30;;;17.40;99.90;;;;;;5048202;28;20192;-32
2022/10/21 06:46:56;;;;;;;8.10;2.50;;;17.40;99.90;;;;;;5048183;28;20665;-32
2022/10/21 06:49:24;;;;;;;5.53;2.17;;;17.50;99.90;;;;;;5048098;28;20244;-32
2022/10/21 06:51:51;;;;;;;7.57;2.60;;;17.50;99.90;;;;;;5048049;28;20200;-32
2022/10/21 06:54:21;;;;;;;4.87;2.20;;;17.50;99.90;;;;;;5048194;28;20235;-32
2022/10/21 06:56:50;;;;;;;6.63;2.40;;;17.50;99.90;;;;;;5048057;28;20257;-32
2022/10/21 06:59:17;;;;;;;6.83;2.57;;;17.50;99.90;;;;;;5048101;28;20683;-32
2022/10/21 07:01:44;;;;;;;7.17;3.23;;;17.60;99.90;;;;;;5047317;28;20199;-32
2022/10/21 07:04:26;;;;;;;8.50;3.13;;;17.60;99.90;;;;;;5048134;28;20180;-32
2022/10/21 07:06:53;;;;;;;8.43;3.17;;;17.60;99.90;;;;;;5048000;28;20274;-32
2022/10/21 07:09:21;;;;;;;14.50;3.07;;;17.60;99.90;;;;;;5048227;28;20693;-32
2022/10/21 07:11:48;;;;;;;10.43;3.50;;;17.60;99.90;;;;;;5048175;28;20204;-32
2022/10/21 07:14:16;;;;;;;16.20;3.67;;;17.60;99.90;;;;;;5048325;28;20204;-32
2022/10/21 07:16:46;;;;;;;11.83;3.00;;;17.70;99.90;;;;;;5048002;28;20247;-32
2022/10/21 07:19:13;;;;;;;7.73;3.00;;;17.70;99.90;;;;;;5046711;28;20689;-32
2022/10/21 07:21:41;;;;;;;9.43;2.87;;;17.70;99.90;;;;;;5047854;28;20196;-32
2022/10/21 07:24:09;;;;;;;6.43;2.43;;;17.70;99.90;;;;;;5046437;28;20730;-31
2022/10/21 07:26:36;;;;;;;7.40;2.90;;;17.70;99.90;;;;;;5047981;28;20658;-32
2022/10/21 07:29:04;;;;;;;7.47;2.87;;;17.70;99.90;;;;;;5047732;28;20702;-31
2022/10/21 07:31:34;;;;;;;7.93;2.57;;;17.80;99.90;;;;;;5047746;28;20207;-32
2022/10/21 07:34:09;;;;;;;7.67;2.40;;;17.80;99.90;;;;;;5047808;28;20627;-32
2022/10/21 07:36:40;;;;;;;6.17;2.30;;;17.80;99.90;;;;;;5047563;28;20319;-32
2022/10/21 07:39:11;;;;;;;6.73;2.70;;;17.80;99.90;;;;;;5047481;28;20185;-31
2022/10/21 07:41:42;;;;;;;5.23;2.40;;;17.80;99.90;;;;;;5062632;28;20254;-32
2022/10/21 07:44:10;;;;;;;6.40;2.67;;;17.80;99.90;;;;;;5047610;28;20247;-32
2022/10/21 07:46:40;;;;;;;8.67;2.40;;;17.90;99.90;;;;;;5047773;28;20273;-33
2022/10/21 07:49:08;;;;;;;8.83;2.73;;;17.90;99.90;;;;;;5047438;28;20208;-32
2022/10/21 07:51:38;;;;;;;7.83;2.63;;;17.90;99.90;;;;;;5047487;28;20295;-31
2022/10/21 07:54:06;;;;;;;6.17;2.33;;;17.90;99.90;;;;;;5047470;28;20188;-31
2022/10/21 07:56:39;;;;;;;6.47;2.57;;;17.90;99.90;;;;;;5047534;28;20235;-31
2022/10/21 07:59:07;;;;;;;6.53;2.17;;;18.00;99.90;;;;;;5047825;28;20287;-32
2022/10/21 08:01:42;;;;;;;7.60;2.50;;;18.00;99.90;;;;;;5047634;28;20204;-32
2022/10/21 08:04:13;;;;;;;7.17;2.40;;;18.00;99.90;;;;;;5047537;28;20185;-32
2022/10/21 08:06:41;;;;;;;6.90;2.50;;;18.00;99.90;;;;;;5047434;28;20273;-32
2022/10/21 08:09:08;;;;;;;12.20;2.70;;;18.10;99.90;;;;;;5047267;28;20758;-32
2022/10/21 08:11:36;;;;;;;6.10;2.50;;;18.00;99.90;;;;;;5047244;28;20544;-32
2022/10/21 08:14:06;;;;;;;6.50;2.50;;;18.10;99.90;;;;;;5049725;28;20753;-31
2022/10/21 08:16:34;;;;;;;4.80;2.00;;;18.20;99.90;;;;;;5050821;28;20196;-32
2022/10/21 08:19:03;;;;;;;9.13;2.30;;;18.20;99.90;;;;;;5049367;28;20282;-33
2022/10/21 08:21:31;;;;;;;7.17;2.67;;;18.20;99.90;;;;;;5050447;28;20715;-34
2022/10/21 08:24:00;;;;;;;5.90;2.30;;;18.20;99.90;;;;;;5050640;28;20295;-32
2022/10/21 08:26:30;;;;;;;3.80;1.73;;;18.20;99.90;;;;;;5050868;28;20224;-32
2022/10/21 08:28:57;;;;;;;4.73;2.13;;;18.30;99.90;;;;;;5050625;28;20211;-32
2022/10/21 08:31:30;;;;;;;7.00;2.20;;;18.30;99.90;;;;;;5050909;28;20666;-31
2022/10/21 08:33:58;;;;;;;6.23;2.20;;;18.30;99.90;;;;;;5050809;28;20609;-33
2022/10/21 08:36:25;;;;;;;8.33;2.33;;;18.40;99.90;;;;;;5050479;28;20340;-32
2022/10/21 08:38:57;;;;;;;5.63;2.10;;;18.40;99.90;;;;;;5049298;28;20239;-32
2022/10/21 08:41:30;;;;;;;5.53;2.47;;;18.40;99.90;;;;;;5049212;28;20270;-32
2022/10/21 08:44:15;;;;;;;3.23;1.93;;;18.40;99.90;;;;;;5050633;28;20196;-32
2022/10/21 08:47:07;;;;;;;5.23;1.97;;;18.50;99.90;;;;;;5050644;28;20234;-31
2022/10/21 08:49:41;;;;;;;4.57;1.93;;;18.50;99.90;;;;;;5050627;28;20320;-31
2022/10/21 08:52:14;;;;;;;6.77;2.13;;;18.60;99.90;;;;;;5050536;28;20184;-33
2022/10/21 08:54:54;;;;;;;8.53;2.27;;;18.60;99.90;;;;;;5050184;28;20219;-32
2022/10/21 08:57:21;;;;;;;3.63;1.57;;;18.60;99.90;;;;;;5050335;28;20185;-33
2022/10/21 08:59:54;;;;;;;6.13;1.73;;;18.70;99.90;;;;;;5050055;28;20220;-31
2022/10/21 09:02:28;;;;;;;4.97;1.40;;;18.70;99.90;;;;;;5049801;28;20763;-33
2022/10/21 09:05:40;;;;;;;2.63;1.23;;;18.80;99.90;;;;;;5050007;28;20205;-32
2022/10/21 09:08:23;;;;;;;5.93;1.50;;;18.80;99.90;;;;;;5048907;28;20777;-33
2022/10/21 09:11:06;;;;;;;4.20;1.60;;;18.80;99.90;;;;;;5065161;28;20199;-32
2022/10/21 09:13:49;;;;;;;5.10;1.83;;;18.80;99.90;;;;;;5048828;28;20192;-32
2022/10/21 09:16:40;;;;;;;1.40;0.80;;;18.90;99.90;;;;;;5064689;28;20215;-31
2022/10/21 09:19:24;;;;;;;3.43;1.07;;;18.90;99.90;;;;;;5050004;28;20697;-32
2022/10/21 09:22:19;;;;;;;1.73;0.90;;;18.90;99.90;;;;;;5049818;28;20599;-32
2022/10/21 09:25:18;;;;;;;2.23;0.70;;;19.00;99.90;;;;;;5049139;28;20200;-32
2022/10/21 09:27:46;;;;;;;2.87;1.00;;;19.00;99.90;;;;;;5049530;28;20705;-32
2022/10/21 09:30:29;;;;;;;3.97;1.00;;;19.00;99.90;;;;;;5049675;28;20200;-32
2022/10/21 09:32:58;;;;;;;7.47;1.13;;;19.00;99.90;;;;;;5049312;28;20197;-32
2022/10/21 09:35:43;;;;;;;2.97;0.70;;;19.00;99.90;;;;;;5049023;28;20295;-32
2022/10/21 09:38:25;;;;;;;3.90;0.80;;;19.10;99.90;;;;;;5049300;28;20196;-33
2022/10/21 09:41:01;;;;;;;5.43;1.10;;;19.10;99.90;;;;;;5049370;28;20622;-32
2022/10/21 09:43:30;;;;;;;3.67;1.10;;;19.20;99.90;;;;;;5049541;28;20189;-32
2022/10/21 09:45:57;;;;;;;7.83;0.87;;;19.20;99.90;;;;;;5049029;28;20620;-32
2022/10/21 09:48:40;;;;;;;4.73;1.57;;;19.30;99.90;;;;;;5049024;28;20659;-32
2022/10/21 09:51:31;;;;;;;1.10;0.60;;;19.30;99.90;;;;;;5048955;28;20203;-32
2022/10/21 09:54:07;;;;;;;0.87;0.50;;;19.40;99.90;;;;;;5048968;28;20269;-33
2022/10/21 09:56:48;;;;;;;4.77;0.80;;;19.40;99.90;;;;;;5048706;28;20275;-32
2022/10/21 09:59:18;;;;;;;2.93;0.87;;;19.40;99.90;;;;;;5048953;28;20666;-33
2022/10/21 10:01:47;;;;;;;0.73;0.40;;;19.50;99.90;;;;;;5048375;28;20228;-32
2022/10/21 10:04:31;;;;;;;4.20;0.70;;;19.50;99.90;;;;;;5048542;28;20204;-32
2022/10/21 10:07:01;;;;;;;1.33;0.40;;;19.50;99.90;;;;;;5048768;28;20196;-32
2022/10/21 10:09:31;;;;;;;1.43;0.60;;;19.60;99.90;;;;;;5048337;28;20580;-32
2022/10/21 10:12:09;;;;;;;3.60;0.50;;;19.70;99.90;;;;;;5048547;28;20211;-32
2022/10/21 10:14:41;;;;;;;1.40;0.75;;;19.70;99.90;;;;;;5048381;28;20691;-32
2022/10/21 10:17:28;;;;;;;1.37;0.77;;;19.80;99.90;;;;;;5048583;28;20187;-32
2022/10/21 10:20:11;;;;;;;1.05;0.60;;;19.90;99.90;;;;;;5048346;28;20216;-32
2022/10/21 10:22:43;;;;;;;0.83;0.60;;;19.90;99.90;;;;;;5048036;28;20201;-32
2022/10/21 10:25:10;;;;;;;1.85;0.70;;;20.00;99.90;;;;;;5048937;28;20207;-32
2022/10/21 10:28:14;;;;;;;1.52;0.70;;;20.00;99.90;;;;;;5046567;28;20749;-32
2022/10/21 10:30:42;;;;;;;3.35;0.80;;;20.10;99.90;;;;;;5048235;28;20705;-33
2022/10/21 10:33:20;;;;;;;3.72;0.85;;;20.10;99.90;;;;;;5048124;28;20196;-32
2022/10/21 10:35:54;;;;;;;1.15;0.60;;;20.10;99.90;;;;;;5047823;28;20188;-32
2022/10/21 10:38:35;;;;;;;1.58;0.80;;;20.20;99.90;;;;;;5048286;28;20248;-32
2022/10/21 10:41:14;;;;;;;2.20;0.98;;;20.30;99.90;;;;;;5048200;28;20561;-32
2022/10/21 10:43:54;;;;;;;1.73;0.63;;;20.30;99.90;;;;;;5048098;28;20199;-32
2022/10/21 10:46:24;;;;;;;1.38;0.80;;;20.30;99.90;;;;;;5048618;28;20180;-32
2022/10/21 10:48:59;;;;;;;2.00;1.20;;;20.40;99.90;;;;;;5048133;28;20677;-32
2022/10/21 10:51:33;;;;;;;7.10;1.25;;;20.40;99.90;;;;;;5047894;28;20187;-33
2022/10/21 10:54:05;;;;;;;2.83;1.00;;;20.40;99.90;;;;;;5047921;28;20195;-32
2022/10/21 10:56:49;;;;;;;3.35;1.05;;;20.40;99.90;;;;;;5047594;28;20290;-32
2022/10/21 10:59:21;;;;;;;4.05;1.15;;;20.50;99.90;;;;;;5046234;28;20230;-33
2022/10/21 11:02:07;;;;;;;2.63;1.02;;;20.50;99.90;;;;;;5047318;28;20208;-32
2022/10/21 11:05:05;;;;;;;5.57;1.20;;;20.50;99.90;;;;;;5047755;28;20769;-33
2022/10/21 11:07:44;;;;;;;8.10;1.92;;;20.60;99.90;;;;;;5048045;28;20216;-33
2022/10/21 11:10:33;;;;;;;1.67;1.02;;;20.60;99.90;;;;;;5047738;28;20241;-32
2022/10/21 11:13:02;;;;;;;5.82;1.00;;;20.60;99.90;;;;;;5047678;28;20286;-33
2022/10/21 11:15:52;;;;;;;3.22;1.00;;;20.70;99.90;;;;;;5047557;28;20199;-33
2022/10/21 11:18:22;;;;;;;2.45;0.93;;;20.70;99.90;;;;;;5047366;28;20224;-32
2022/10/21 11:21:06;;;;;;;2.60;1.25;;;20.70;99.90;;;;;;5047633;28;20216;-32
2022/10/21 11:23:33;;;;;;;1.80;0.93;;;20.80;99.90;;;;;;5047490;28;20243;-33
2022/10/21 11:26:37;;;;;;;5.22;1.67;;;20.80;99.90;;;;;;5047291;28;20718;-32
2022/10/21 11:29:35;;;;;;;2.55;0.90;;;20.90;99.90;;;;;;5047581;28;20615;-33
2022/10/21 11:32:11;;;;;;;2.75;0.90;;;20.90;99.90;;;;;;5046368;28;20224;-33
2022/10/21 11:35:03;;;;;;;4.93;0.98;;;20.90;99.90;;;;;;5047765;28;20871;-33
2022/10/21 11:37:45;;;;;;;3.15;1.13;;;21.00;99.90;;;;;;5047084;28;20192;-33
2022/10/21 11:40:50;;;;;;;2.35;1.05;;;21.00;99.90;;;;;;5047751;28;20212;-32
2022/10/21 11:43:48;;;;;;;2.55;1.15;;;21.00;99.90;;;;;;5047395;28;20200;-33
2022/10/21 11:46:34;;;;;;;3.15;0.90;;;21.00;99.90;;;;;;5047209;28;20207;-33
2022/10/21 11:49:35;;;;;;;2.35;0.77;;;21.00;99.90;;;;;;5050111;28;20223;-33
2022/10/21 11:52:21;;;;;;;3.03;1.02;;;21.00;99.90;;;;;;5051202;28;20678;-33
2022/10/21 11:55:14;;;;;;;2.15;0.80;;;21.10;99.90;;;;;;5049608;28;20184;-33
2022/10/21 11:58:01;;;;;;;1.83;0.80;;;21.10;99.90;;;;;;5051094;28;20207;-33
2022/10/21 12:00:37;;;;;;;5.72;1.42;;;21.10;99.90;;;;;;5051089;28;20216;-32
2022/10/21 12:03:23;;;;;;;3.42;1.13;;;21.10;99.90;;;;;;5051105;28;20199;-31
2022/10/21 12:06:13;;;;;;;7.03;1.65;;;21.20;99.90;;;;;;5051194;28;20678;-32
2022/10/21 12:09:21;;;;;;;3.85;1.13;;;21.20;99.90;;;;;;5051114;28;20200;-33
2022/10/21 12:11:55;;;;;;;7.65;1.00;;;21.20;99.90;;;;;;5049613;28;20227;-33
2022/10/21 12:14:47;;;;;;;2.30;0.80;;;21.30;99.90;;;;;;5050679;28;20212;-34
2022/10/21 12:17:20;;;;;;;2.75;0.80;;;21.30;99.90;;;;;;5050172;28;20215;-32
2022/10/21 12:20:18;;;;;;;2.28;0.80;;;21.30;99.90;;;;;;5066014;28;20247;-32
2022/10/21 12:22:56;;;;;;;6.60;1.30;;;21.30;99.90;;;;;;5050377;28;20200;-33
2022/10/21 12:25:37;;;;;;;3.70;0.95;;;21.30;99.90;;;;;;5050618;28;20693;-33
2022/10/21 12:28:12;;;;;;;11.23;1.58;;;21.30;99.90;;;;;;5050744;28;20196;-32
2022/10/21 12:30:42;;;;;;;2.25;0.65;;;21.30;99.90;;;;;;5050473;28;20199;-33
2022/10/21 12:33:42;;;;;;;1.55;0.88;;;21.30;99.90;;;;;;5050453;28;20310;-33
2022/10/21 12:36:18;;;;;;;1.95;0.68;;;21.30;99.90;;;;;;5061772;28;20262;-33
2022/10/21 12:38:48;;;;;;;2.67;0.70;;;21.30;99.90;;;;;;5050679;28;20697;-33
2022/10/21 12:41:35;;;;;;;2.30;1.10;;;21.30;99.90;;;;;;5049009;28;20231;-33
2022/10/21 12:44:02;;;;;;;1.80;1.02;;;21.30;99.90;;;;;;5050256;28;20188;-33
2022/10/21 12:46:32;;;;;;;2.05;0.70;;;21.30;99.90;;;;;;5050750;28;20188;-33
2022/10/21 12:49:17;;;;;;;2.10;0.60;;;21.30;99.90;;;;;;5050248;28;20589;-33
2022/10/21 12:51:54;;;;;;;1.50;0.80;;;21.40;99.90;;;;;;5050067;28;20268;-33
2022/10/21 12:54:26;;;;;;;3.90;0.80;;;21.40;99.90;;;;;;5050494;28;20268;-33
2022/10/21 12:57:09;;;;;;;1.80;0.60;;;21.40;99.90;;;;;;5064608;28;20290;-33
2022/10/21 12:59:40;;;;;;;2.78;0.80;;;21.40;99.90;;;;;;5048561;28;20686;-33
2022/10/21 13:02:17;;;;;;;2.30;0.60;;;21.40;99.90;;;;;;5049795;28;20216;-32
2022/10/21 13:04:47;;;;;;;2.05;0.65;;;21.40;99.90;;;;;;5049839;28;20665;-33
2022/10/21 13:07:15;;;;;;;5.15;0.80;;;21.40;99.90;;;;;;5064897;28;20315;-33
2022/10/21 13:09:49;;;;;;;2.30;0.88;;;21.40;99.90;;;;;;5049467;28;20243;-33
2022/10/21 13:12:23;;;;;;;2.75;0.88;;;21.40;99.90;;;;;;5048935;28;20285;-33
2022/10/21 13:15:13;;;;;;;8.70;1.50;;;21.40;99.90;;;;;;5048864;28;20235;-33
2022/10/21 13:17:54;;;;;;;6.10;1.40;;;21.40;99.90;;;;;;5047418;28;20224;-33
2022/10/21 13:20:22;;;;;;;3.08;0.93;;;21.50;99.90;;;;;;5047765;28;20196;-33